Time;durP1;ratioP1;P1;durP2;ratioP2;P2;SDS_P1;SDS_P2;PMS_P1;PMS_P2;Temp;Humidity;BMP_temperature;BMP_pressure;BME280_temperature;BME280_humidity;BME280_pressure;Samples;Min_cycle;Max_cycle;Signal;HPM_P1;HPM_P2
2023/11/13 00:01:01;;;;;;;3.78;3.50;;;10.80;99.90;;;;;;5097104;28;20750;-79
2023/11/13 00:03:28;;;;;;;5.50;5.00;;;10.80;99.90;;;;;;5096373;28;20280;-79
2023/11/13 00:05:55;;;;;;;3.70;3.40;;;10.80;99.90;;;;;;5096739;28;20243;-79
2023/11/13 00:08:23;;;;;;;3.05;2.85;;;10.80;99.90;;;;;;5095633;28;20223;-80
2023/11/13 00:10:51;;;;;;;3.70;3.40;;;10.80;99.90;;;;;;5096995;28;20542;-81
2023/11/13 00:13:18;;;;;;;4.40;3.97;;;10.80;99.90;;;;;;5096442;28;20227;-81
2023/11/13 00:15:45;;;;;;;3.55;3.28;;;10.80;99.90;;;;;;5096857;28;20239;-80
2023/11/13 00:18:12;;;;;;;3.53;3.22;;;10.80;99.90;;;;;;5096687;28;20219;-81
2023/11/13 00:20:38;;;;;;;4.65;4.25;;;10.80;99.90;;;;;;5086818;28;20215;-81
2023/11/13 00:23:06;;;;;;;5.45;5.00;;;10.80;99.90;;;;;;5096329;28;20223;-80
2023/11/13 00:25:33;;;;;;;8.10;5.32;;;10.80;99.90;;;;;;5096300;28;20609;-80
2023/11/13 00:28:01;;;;;;;5.55;4.75;;;10.80;99.90;;;;;;5096310;28;20269;-79
2023/11/13 00:30:28;;;;;;;4.75;4.35;;;10.80;99.90;;;;;;5095834;28;20318;-79
2023/11/13 00:32:55;;;;;;;4.85;4.45;;;10.80;99.90;;;;;;5096495;28;20223;-80
2023/11/13 00:35:24;;;;;;;4.10;3.70;;;10.80;99.90;;;;;;5095393;28;20319;-80
2023/11/13 00:37:51;;;;;;;3.35;2.97;;;10.80;99.90;;;;;;5096012;28;20223;-80
2023/11/13 00:40:18;;;;;;;3.78;3.45;;;10.90;99.90;;;;;;5096244;28;20318;-79
2023/11/13 00:42:45;;;;;;;4.53;3.45;;;10.80;99.90;;;;;;5088227;28;20331;-80
2023/11/13 00:45:14;;;;;;;4.32;3.60;;;10.80;99.90;;;;;;5108512;28;20332;-80
2023/11/13 00:47:41;;;;;;;3.30;3.00;;;10.80;99.90;;;;;;5095518;28;20245;-79
2023/11/13 00:50:10;;;;;;;4.10;3.25;;;10.80;99.90;;;;;;5096104;28;20306;-78
2023/11/13 00:52:39;;;;;;;3.05;2.58;;;10.80;99.90;;;;;;5095759;28;20273;-81
2023/11/13 00:55:12;;;;;;;2.90;2.70;;;10.80;99.90;;;;;;5095874;28;20266;-79
2023/11/13 00:57:39;;;;;;;5.82;3.55;;;10.80;99.90;;;;;;5095021;28;20215;-78
2023/11/13 01:00:09;;;;;;;3.80;2.92;;;10.80;99.90;;;;;;5096111;28;20270;-78
2023/11/13 01:02:38;;;;;;;3.30;3.10;;;10.80;99.90;;;;;;5095474;28;20223;-80
2023/11/13 01:05:05;;;;;;;3.30;3.08;;;10.80;99.90;;;;;;5095499;28;20696;-80
2023/11/13 01:07:33;;;;;;;3.45;3.15;;;10.80;99.90;;;;;;5095162;28;20306;-80
2023/11/13 01:09:59;;;;;;;6.60;3.03;;;10.80;99.90;;;;;;5095918;28;20223;-80
2023/11/13 01:12:27;;;;;;;3.03;2.83;;;10.80;99.90;;;;;;5095309;28;20302;-81
2023/11/13 01:14:54;;;;;;;3.85;3.40;;;10.80;99.90;;;;;;5095335;28;20231;-79
2023/11/13 01:17:21;;;;;;;3.67;2.83;;;10.80;99.90;;;;;;5095820;28;20219;-80
2023/11/13 01:19:50;;;;;;;3.22;3.03;;;10.80;99.90;;;;;;5095042;28;20310;-79
2023/11/13 01:22:17;;;;;;;4.43;3.95;;;10.80;99.90;;;;;;5095608;28;20302;-79
2023/11/13 01:24:43;;;;;;;3.50;3.20;;;10.80;99.90;;;;;;5094785;28;20727;-79
2023/11/13 01:27:10;;;;;;;4.40;3.03;;;10.80;99.90;;;;;;5094984;28;20254;-79
2023/11/13 01:29:37;;;;;;;3.33;3.13;;;10.80;99.90;;;;;;5094730;28;20230;-81
2023/11/13 01:32:04;;;;;;;3.88;3.20;;;10.80;99.90;;;;;;5095313;28;20211;-81
2023/11/13 01:34:31;;;;;;;3.42;3.13;;;10.80;99.90;;;;;;5094702;28;20219;-81
2023/11/13 01:36:59;;;;;;;3.50;2.80;;;10.80;99.90;;;;;;5094978;28;20227;-79
2023/11/13 01:39:26;;;;;;;2.72;2.53;;;10.80;99.90;;;;;;5094693;28;20251;-79
2023/11/13 01:41:54;;;;;;;3.00;2.80;;;10.80;99.90;;;;;;5094964;28;20250;-81
2023/11/13 01:44:21;;;;;;;3.05;2.85;;;10.80;99.90;;;;;;5095219;28;20270;-79
2023/11/13 01:46:49;;;;;;;4.18;2.88;;;10.80;99.90;;;;;;5093900;28;20238;-79
2023/11/13 01:49:16;;;;;;;4.35;3.00;;;10.80;99.90;;;;;;5094938;28;20247;-80
2023/11/13 01:51:44;;;;;;;3.55;3.00;;;10.80;99.90;;;;;;5094382;28;20227;-79
2023/11/13 01:54:14;;;;;;;3.28;2.88;;;10.80;99.90;;;;;;5094773;28;20254;-79
2023/11/13 01:56:43;;;;;;;2.88;2.65;;;10.80;99.90;;;;;;5093553;28;20730;-79
2023/11/13 01:59:13;;;;;;;2.95;2.75;;;10.80;99.90;;;;;;5093943;28;20259;-79
2023/11/13 02:01:41;;;;;;;5.55;3.70;;;10.90;99.90;;;;;;5093846;28;20290;-81
2023/11/13 02:04:08;;;;;;;2.88;2.65;;;10.90;99.90;;;;;;5094583;28;20219;-79
2023/11/13 02:06:35;;;;;;;4.25;3.85;;;10.90;99.90;;;;;;5093242;28;20334;-79
2023/11/13 02:09:05;;;;;;;3.65;3.20;;;10.90;99.90;;;;;;5094787;28;20227;-79
2023/11/13 02:11:34;;;;;;;3.33;3.03;;;11.00;99.90;;;;;;5094319;28;20257;-79
2023/11/13 02:14:01;;;;;;;4.18;2.95;;;11.00;99.90;;;;;;5094845;28;20220;-81
2023/11/13 02:16:28;;;;;;;3.90;3.60;;;11.00;99.90;;;;;;5094893;28;20223;-79
2023/11/13 02:18:56;;;;;;;3.25;2.95;;;11.10;99.90;;;;;;5094506;28;20314;-81
2023/11/13 02:21:23;;;;;;;2.80;2.60;;;11.10;99.90;;;;;;5094808;28;20230;-80
2023/11/13 02:23:53;;;;;;;4.18;2.90;;;11.10;99.90;;;;;;5093834;28;20223;-79
2023/11/13 02:26:22;;;;;;;3.33;2.75;;;11.10;99.90;;;;;;5094065;28;20231;-81
2023/11/13 02:28:49;;;;;;;2.90;2.70;;;11.20;99.90;;;;;;5094311;28;20227;-81
2023/11/13 02:31:16;;;;;;;3.10;2.90;;;11.20;99.90;;;;;;5094929;28;20223;-79
2023/11/13 02:33:45;;;;;;;3.50;3.20;;;11.20;99.90;;;;;;5093814;28;20222;-80
2023/11/13 02:36:14;;;;;;;2.83;2.60;;;11.20;99.90;;;;;;5094292;28;20227;-80
2023/11/13 02:38:41;;;;;;;2.72;2.53;;;11.20;99.90;;;;;;5093923;28;20643;-82
2023/11/13 02:41:10;;;;;;;3.38;2.35;;;11.20;99.90;;;;;;5094246;28;20223;-80
2023/11/13 02:43:37;;;;;;;2.72;2.40;;;11.20;99.90;;;;;;5093097;28;20276;-80
2023/11/13 02:46:08;;;;;;;2.60;2.40;;;11.20;99.90;;;;;;5094105;28;20230;-81
2023/11/13 02:48:35;;;;;;;2.70;2.47;;;11.20;99.90;;;;;;5093750;28;20224;-80
2023/11/13 02:51:02;;;;;;;2.88;2.55;;;11.20;99.90;;;;;;5093816;28;20590;-81
2023/11/13 02:53:30;;;;;;;3.17;2.95;;;11.20;99.90;;;;;;5093559;28;20306;-81
2023/11/13 02:55:57;;;;;;;3.00;2.80;;;11.20;99.90;;;;;;5093555;28;20223;-80
2023/11/13 02:58:25;;;;;;;2.67;2.47;;;11.20;99.90;;;;;;5094178;28;20276;-80
2023/11/13 03:00:52;;;;;;;3.45;3.25;;;11.20;99.90;;;;;;5093621;28;20238;-81
2023/11/13 03:03:19;;;;;;;3.25;3.05;;;11.20;99.90;;;;;;5094194;28;20243;-81
2023/11/13 03:05:46;;;;;;;2.90;2.67;;;11.10;99.90;;;;;;5093476;28;20227;-81
2023/11/13 03:08:13;;;;;;;3.03;2.72;;;11.10;99.90;;;;;;5094127;28;20227;-81
2023/11/13 03:10:40;;;;;;;3.00;2.70;;;11.10;99.90;;;;;;5099209;28;20226;-81
2023/11/13 03:13:06;;;;;;;3.40;3.10;;;11.10;99.90;;;;;;5100391;28;20280;-80
2023/11/13 03:15:37;;;;;;;5.95;3.22;;;11.10;99.90;;;;;;5106186;28;20236;-81
2023/11/13 03:18:05;;;;;;;3.25;2.95;;;11.10;99.90;;;;;;5099849;28;20229;-79
2023/11/13 03:20:32;;;;;;;2.95;2.75;;;11.00;99.90;;;;;;5100654;28;20230;-81
2023/11/13 03:22:58;;;;;;;3.53;3.28;;;11.00;99.90;;;;;;5099688;28;20250;-81
2023/11/13 03:25:25;;;;;;;2.80;2.60;;;11.00;99.90;;;;;;5100337;28;20628;-80
2023/11/13 03:27:52;;;;;;;3.30;3.00;;;11.00;99.90;;;;;;5099768;28;20314;-81
2023/11/13 03:30:19;;;;;;;3.15;2.85;;;10.90;99.90;;;;;;5100147;28;20226;-80
2023/11/13 03:32:47;;;;;;;3.30;3.00;;;10.90;99.90;;;;;;5099849;28;20242;-81
2023/11/13 03:35:16;;;;;;;5.63;3.53;;;10.90;99.90;;;;;;5100227;28;20314;-81
2023/11/13 03:37:43;;;;;;;3.17;2.88;;;10.90;99.90;;;;;;5100887;28;20284;-81
2023/11/13 03:40:12;;;;;;;2.80;2.60;;;10.80;99.90;;;;;;5100096;28;20230;-81
2023/11/13 03:42:39;;;;;;;3.83;3.08;;;10.80;99.90;;;;;;5100153;28;20219;-81
2023/11/13 03:45:08;;;;;;;3.60;3.30;;;10.80;99.90;;;;;;5099034;28;20227;-81
2023/11/13 03:47:36;;;;;;;4.32;3.72;;;10.70;99.90;;;;;;5100155;28;20227;-81
2023/11/13 03:50:06;;;;;;;5.18;3.20;;;10.70;99.90;;;;;;5099754;28;20230;-81
2023/11/13 03:52:37;;;;;;;3.30;3.10;;;10.60;99.90;;;;;;5099935;28;20219;-79
2023/11/13 03:55:04;;;;;;;2.90;2.70;;;10.60;99.90;;;;;;5099174;28;20241;-80
2023/11/13 03:57:31;;;;;;;3.70;3.20;;;10.60;99.90;;;;;;5099892;28;20211;-80
2023/11/13 03:59:58;;;;;;;3.40;2.95;;;10.60;99.90;;;;;;5099316;28;20306;-80
2023/11/13 04:02:26;;;;;;;3.70;3.40;;;10.60;99.90;;;;;;5099941;28;20677;-80
2023/11/13 04:04:53;;;;;;;3.65;3.35;;;10.50;99.90;;;;;;5099076;28;20312;-80
2023/11/13 04:07:24;;;;;;;3.30;3.10;;;10.50;99.90;;;;;;5099598;28;20261;-81
2023/11/13 04:09:50;;;;;;;5.53;3.15;;;10.50;99.90;;;;;;5099461;28;20669;-81
2023/11/13 04:12:17;;;;;;;3.05;2.60;;;10.50;99.90;;;;;;5100299;28;20298;-81
2023/11/13 04:14:44;;;;;;;3.92;3.30;;;10.50;99.90;;;;;;5099612;28;20227;-81
2023/11/13 04:20:07;;;;;;;3.70;3.30;;;10.50;99.90;;;;;;5096140;28;20308;-80
2023/11/13 04:22:35;;;;;;;3.35;3.15;;;10.50;99.90;;;;;;5096399;28;20216;-79
2023/11/13 04:25:03;;;;;;;3.20;3.00;;;10.50;99.90;;;;;;5095918;28;20259;-79
2023/11/13 04:27:31;;;;;;;3.80;3.50;;;10.50;99.90;;;;;;5095640;28;20215;-79
2023/11/13 04:29:59;;;;;;;2.90;2.70;;;10.50;99.90;;;;;;5095674;28;20243;-79
2023/11/13 04:32:26;;;;;;;3.78;3.47;;;10.50;99.90;;;;;;5096493;28;20226;-79
2023/11/13 04:34:53;;;;;;;4.38;3.50;;;10.40;99.90;;;;;;5095124;28;20264;-79
2023/11/13 04:37:22;;;;;;;3.58;3.28;;;10.40;99.90;;;;;;5095802;28;20259;-79
2023/11/13 04:39:50;;;;;;;4.00;3.50;;;10.40;99.90;;;;;;5095768;28;20311;-79
2023/11/13 04:42:17;;;;;;;3.40;3.10;;;10.40;99.90;;;;;;5096108;28;20704;-80
2023/11/13 04:44:44;;;;;;;3.67;3.38;;;10.40;99.90;;;;;;5096250;28;20254;-79
2023/11/13 04:47:11;;;;;;;4.05;3.15;;;10.30;99.90;;;;;;5095180;28;20246;-79
2023/11/13 04:49:38;;;;;;;4.55;3.78;;;10.30;99.90;;;;;;5096071;28;20243;-80
2023/11/13 04:52:06;;;;;;;3.92;3.63;;;10.30;99.90;;;;;;5095819;28;20302;-80
2023/11/13 04:54:33;;;;;;;3.08;2.58;;;10.30;99.90;;;;;;5095930;28;20272;-80
2023/11/13 04:57:01;;;;;;;3.78;3.47;;;10.30;99.90;;;;;;5094807;28;20227;-81
2023/11/13 04:59:29;;;;;;;4.32;3.83;;;10.30;99.90;;;;;;5096531;28;20223;-81
2023/11/13 05:01:56;;;;;;;3.25;3.00;;;10.30;99.90;;;;;;5096046;28;20261;-79
2023/11/13 05:04:26;;;;;;;3.50;3.20;;;10.20;99.90;;;;;;5096000;28;20224;-80
2023/11/13 05:06:53;;;;;;;4.88;3.65;;;10.20;99.90;;;;;;5095595;28;20224;-79
2023/11/13 05:09:20;;;;;;;3.78;3.38;;;10.20;99.90;;;;;;5095483;28;20228;-79
2023/11/13 05:11:47;;;;;;;3.40;3.10;;;10.20;99.90;;;;;;5095875;28;20234;-79
2023/11/13 05:14:15;;;;;;;3.22;2.63;;;10.20;99.90;;;;;;5095824;28;20211;-79
2023/11/13 05:16:42;;;;;;;4.93;3.05;;;10.10;99.90;;;;;;5099277;28;20742;-78
2023/11/13 05:19:09;;;;;;;3.40;3.10;;;10.00;99.90;;;;;;5109503;28;20250;-80
2023/11/13 05:21:36;;;;;;;5.15;3.30;;;10.00;99.90;;;;;;5111368;28;20219;-80
2023/11/13 05:24:04;;;;;;;8.57;3.67;;;10.00;99.90;;;;;;5108953;28;20219;-80
2023/11/13 05:26:31;;;;;;;3.70;3.40;;;10.00;99.90;;;;;;5101490;28;20234;-80
2023/11/13 05:28:58;;;;;;;3.67;3.10;;;10.00;99.90;;;;;;5095951;28;20251;-79
2023/11/13 05:31:27;;;;;;;4.20;3.67;;;10.00;99.90;;;;;;5095354;28;20257;-79
2023/11/13 05:33:54;;;;;;;3.33;3.03;;;10.00;99.90;;;;;;5094568;28;20307;-80
2023/11/13 05:36:21;;;;;;;3.58;3.20;;;10.00;99.90;;;;;;5094977;28;20227;-78
2023/11/13 05:38:48;;;;;;;4.25;3.85;;;10.00;99.90;;;;;;5094738;28;20241;-79
2023/11/13 05:41:15;;;;;;;3.70;3.38;;;10.00;99.90;;;;;;5094246;28;20577;-80
2023/11/13 05:43:42;;;;;;;4.03;3.72;;;10.00;99.90;;;;;;5095171;28;20268;-78
2023/11/13 05:46:09;;;;;;;3.42;3.13;;;10.00;99.90;;;;;;5094392;28;20288;-81
2023/11/13 05:48:38;;;;;;;4.10;3.70;;;10.00;99.90;;;;;;5093311;28;20224;-81
2023/11/13 05:51:06;;;;;;;4.75;3.67;;;10.00;99.90;;;;;;5094571;28;20321;-79
2023/11/13 05:53:36;;;;;;;4.05;2.70;;;10.00;99.90;;;;;;5094770;28;20230;-80
2023/11/13 05:56:03;;;;;;;4.65;3.30;;;10.10;99.90;;;;;;5086500;28;20310;-80
2023/11/13 05:58:31;;;;;;;4.22;3.50;;;10.10;99.90;;;;;;5094243;28;20237;-81
2023/11/13 06:00:58;;;;;;;4.10;3.22;;;10.10;99.90;;;;;;5094993;28;20219;-79
2023/11/13 06:03:25;;;;;;;3.55;3.30;;;10.00;99.90;;;;;;5095837;28;20227;-80
2023/11/13 06:05:54;;;;;;;4.38;2.97;;;10.00;99.90;;;;;;5094647;28;20238;-81
2023/11/13 06:08:21;;;;;;;4.25;3.40;;;10.10;99.90;;;;;;5093571;28;20313;-80
2023/11/13 06:10:48;;;;;;;3.70;3.40;;;10.10;99.90;;;;;;5095465;28;20266;-80
2023/11/13 06:13:15;;;;;;;8.35;6.63;;;10.10;99.90;;;;;;5095387;28;20238;-80
2023/11/13 06:15:42;;;;;;;8.20;6.35;;;10.10;99.90;;;;;;5096102;28;20247;-80
2023/11/13 06:18:09;;;;;;;6.65;5.72;;;10.00;99.90;;;;;;5093939;28;20251;-79
2023/11/13 06:20:37;;;;;;;5.80;4.80;;;10.00;99.90;;;;;;5094604;28;20302;-81
2023/11/13 06:23:06;;;;;;;5.15;4.70;;;10.00;99.90;;;;;;5093150;28;20245;-79
2023/11/13 06:25:33;;;;;;;5.72;4.03;;;10.00;99.90;;;;;;5094350;28;20296;-81
2023/11/13 06:28:00;;;;;;;5.93;4.28;;;10.00;99.90;;;;;;5093869;28;20223;-79
2023/11/13 06:30:27;;;;;;;4.43;3.90;;;10.00;99.90;;;;;;5093284;28;20628;-78
2023/11/13 06:32:55;;;;;;;5.05;4.55;;;10.00;99.90;;;;;;5093992;28;20219;-79
2023/11/13 06:35:21;;;;;;;4.47;3.60;;;10.00;99.90;;;;;;5093909;28;20241;-81
2023/11/13 06:37:48;;;;;;;4.05;3.65;;;10.00;99.90;;;;;;5094199;28;20227;-79
2023/11/13 06:40:17;;;;;;;3.55;3.25;;;10.00;99.90;;;;;;5093238;28;20288;-80
2023/11/13 06:42:45;;;;;;;4.20;3.80;;;10.00;99.90;;;;;;5094086;28;20298;-79
2023/11/13 06:45:12;;;;;;;5.35;3.70;;;10.00;99.90;;;;;;5092147;28;20224;-79
2023/11/13 06:47:40;;;;;;;4.38;3.97;;;10.00;99.90;;;;;;5093943;28;20231;-80
2023/11/13 06:50:08;;;;;;;4.65;4.25;;;10.00;99.90;;;;;;5093010;28;20242;-79
2023/11/13 06:52:35;;;;;;;5.70;3.75;;;9.90;99.90;;;;;;5094275;28;20258;-78
2023/11/13 06:55:02;;;;;;;6.60;3.78;;;9.90;99.90;;;;;;5093789;28;20223;-78
2023/11/13 06:57:30;;;;;;;4.10;3.70;;;9.90;99.90;;;;;;5092385;28;20250;-78
2023/11/13 06:59:57;;;;;;;6.00;4.10;;;9.90;99.90;;;;;;5093925;28;20243;-78
2023/11/13 07:02:27;;;;;;;7.35;5.30;;;9.90;99.90;;;;;;5093249;28;20219;-78
2023/11/13 07:04:54;;;;;;;6.28;5.68;;;9.90;99.90;;;;;;5093737;28;20575;-78
2023/11/13 07:07:22;;;;;;;5.68;5.18;;;9.90;99.90;;;;;;5093467;28;20230;-78
2023/11/13 07:09:49;;;;;;;7.72;6.28;;;9.80;99.90;;;;;;5093613;28;20258;-78
2023/11/13 07:12:16;;;;;;;8.02;7.03;;;9.80;99.90;;;;;;5093061;28;20306;-78
2023/11/13 07:14:45;;;;;;;8.50;6.75;;;9.80;99.90;;;;;;5093573;28;20243;-79
2023/11/13 07:17:12;;;;;;;7.18;4.72;;;9.80;99.90;;;;;;5093148;28;20277;-80
2023/11/13 07:19:39;;;;;;;3.92;3.53;;;9.80;99.90;;;;;;5093412;28;20253;-80
2023/11/13 07:22:06;;;;;;;4.63;4.18;;;9.80;99.90;;;;;;5094369;28;20223;-81
2023/11/13 07:24:38;;;;;;;8.18;4.38;;;9.80;99.90;;;;;;5092314;28;20683;-79
2023/11/13 07:27:05;;;;;;;6.28;3.90;;;9.80;99.90;;;;;;5093972;28;20223;-79
2023/11/13 07:29:32;;;;;;;6.57;4.90;;;9.80;99.90;;;;;;5092967;28;20539;-79
2023/11/13 07:32:01;;;;;;;6.68;4.65;;;9.90;99.90;;;;;;5093510;28;20310;-79
2023/11/13 07:34:28;;;;;;;6.82;4.40;;;9.90;99.90;;;;;;5093554;28;20219;-79
2023/11/13 07:36:57;;;;;;;4.05;3.75;;;9.90;99.90;;;;;;5093769;28;20227;-79
2023/11/13 07:39:27;;;;;;;6.53;4.15;;;9.90;99.90;;;;;;5093567;28;20243;-81
2023/11/13 07:41:55;;;;;;;5.30;4.68;;;10.00;99.90;;;;;;5094029;28;20227;-81
2023/11/13 07:44:23;;;;;;;7.50;5.93;;;10.00;99.90;;;;;;5094797;28;20310;-79
2023/11/13 07:46:50;;;;;;;4.82;4.40;;;10.00;99.90;;;;;;5094849;28;20249;-79
2023/11/13 07:49:19;;;;;;;5.60;5.10;;;10.10;99.90;;;;;;5093892;28;20704;-79
2023/11/13 07:51:46;;;;;;;7.78;6.63;;;10.10;99.90;;;;;;5094529;28;20258;-79
2023/11/13 07:54:13;;;;;;;6.43;5.60;;;10.20;99.90;;;;;;5094418;28;20223;-80
2023/11/13 07:56:40;;;;;;;7.35;6.13;;;10.20;99.90;;;;;;5097411;28;20287;-80
2023/11/13 07:59:11;;;;;;;8.00;6.22;;;10.20;99.90;;;;;;5099769;28;20227;-80
2023/11/13 08:01:39;;;;;;;8.13;6.40;;;10.20;99.90;;;;;;5098412;28;20243;-81
2023/11/13 08:04:08;;;;;;;16.70;6.50;;;10.30;99.90;;;;;;5097854;28;20576;-81
2023/11/13 08:06:37;;;;;;;6.82;5.78;;;10.30;99.90;;;;;;5097179;28;20302;-81
2023/11/13 08:09:08;;;;;;;6.13;5.30;;;10.30;99.90;;;;;;5104133;28;20227;-81
2023/11/13 08:11:35;;;;;;;11.40;5.30;;;10.40;99.90;;;;;;5102878;28;20227;-81
2023/11/13 08:14:03;;;;;;;5.05;4.55;;;10.30;99.90;;;;;;5107350;28;20223;-81
2023/11/13 08:16:31;;;;;;;4.47;3.92;;;10.30;99.90;;;;;;5102546;28;20235;-81
2023/11/13 08:18:59;;;;;;;6.13;4.25;;;10.30;99.90;;;;;;5101207;28;20306;-81
2023/11/13 08:21:26;;;;;;;5.40;4.90;;;10.30;99.90;;;;;;5103561;28;20260;-81
2023/11/13 08:23:54;;;;;;;9.30;4.85;;;10.30;99.90;;;;;;5108853;28;20234;-81
2023/11/13 08:26:27;;;;;;;4.78;4.05;;;10.30;99.90;;;;;;5099281;28;20235;-80
2023/11/13 08:28:57;;;;;;;8.77;7.70;;;10.30;99.90;;;;;;5102574;28;20683;-79
2023/11/13 08:31:25;;;;;;;10.60;7.32;;;10.30;99.90;;;;;;5097008;28;20299;-79
2023/11/13 08:33:53;;;;;;;9.55;6.68;;;10.20;99.90;;;;;;5096939;28;20223;-79
2023/11/13 08:36:22;;;;;;;7.38;5.18;;;10.30;99.90;;;;;;5096185;28;20628;-79
2023/11/13 08:38:52;;;;;;;7.82;4.93;;;10.20;99.90;;;;;;5096753;28;20239;-79
2023/11/13 08:41:21;;;;;;;5.55;5.10;;;10.20;99.90;;;;;;5095859;28;20281;-81
2023/11/13 08:43:48;;;;;;;5.82;5.32;;;10.20;99.90;;;;;;5097161;28;20223;-82
2023/11/13 08:46:16;;;;;;;9.75;5.85;;;10.10;99.90;;;;;;5097635;28;20231;-82
2023/11/13 08:48:43;;;;;;;17.23;5.85;;;10.10;99.90;;;;;;5096608;28;20306;-80
2023/11/13 08:51:11;;;;;;;5.65;5.15;;;10.10;99.90;;;;;;5095974;28;20677;-80
2023/11/13 08:53:42;;;;;;;8.13;5.47;;;10.10;99.90;;;;;;5095939;28;20227;-81
2023/11/13 08:56:15;;;;;;;5.68;5.22;;;10.10;99.90;;;;;;5096095;28;20223;-81
2023/11/13 08:58:43;;;;;;;7.15;6.30;;;10.10;99.90;;;;;;5096526;28;20215;-82
2023/11/13 09:01:11;;;;;;;6.15;5.40;;;10.10;99.90;;;;;;5098859;28;20223;-79
2023/11/13 09:03:39;;;;;;;7.30;5.60;;;10.10;99.90;;;;;;5096253;28;20730;-79
2023/11/13 09:06:12;;;;;;;5.00;4.50;;;10.20;99.90;;;;;;5096977;28;20227;-79
2023/11/13 09:08:42;;;;;;;8.05;6.47;;;10.20;99.90;;;;;;5096679;28;20289;-79
2023/11/13 09:11:09;;;;;;;5.43;5.00;;;10.20;99.90;;;;;;5085497;28;20222;-79
2023/11/13 09:13:36;;;;;;;5.13;4.63;;;10.30;99.90;;;;;;5096823;28;20309;-80
2023/11/13 09:16:06;;;;;;;4.68;4.38;;;10.30;99.90;;;;;;5092899;28;20227;-78
2023/11/13 09:18:33;;;;;;;5.72;5.18;;;10.40;99.90;;;;;;5093616;28;20298;-78
2023/11/13 09:21:00;;;;;;;5.13;4.63;;;10.40;99.90;;;;;;5096745;28;20288;-78
2023/11/13 09:23:28;;;;;;;5.47;4.53;;;10.50;99.90;;;;;;5084994;28;21002;-78
2023/11/13 09:25:58;;;;;;;5.03;4.60;;;10.60;99.90;;;;;;5102071;28;20306;-79
2023/11/13 09:28:25;;;;;;;5.07;4.68;;;10.60;99.90;;;;;;5094196;28;20241;-79
2023/11/13 09:34:24;;;;;;;5.18;4.68;;;10.80;99.90;;;;;;5070835;28;20294;-80
2023/11/13 09:36:54;;;;;;;5.45;4.88;;;10.80;99.90;;;;;;5092028;28;20234;-78
2023/11/13 09:39:30;;;;;;;6.93;6.32;;;10.80;99.90;;;;;;5087772;28;20219;-79
2023/11/13 09:42:03;;;;;;;10.05;7.30;;;10.90;99.90;;;;;;5097570;28;20567;-81
2023/11/13 09:44:32;;;;;;;7.18;6.38;;;10.90;99.90;;;;;;5098067;28;20522;-79
2023/11/13 09:47:05;;;;;;;7.00;5.05;;;11.00;99.90;;;;;;5102911;28;20219;-80
2023/11/13 09:49:42;;;;;;;6.60;5.60;;;11.00;99.90;;;;;;5096724;28;20316;-80
2023/11/13 09:52:12;;;;;;;6.25;5.32;;;11.10;99.90;;;;;;5113754;27;20279;-80
2023/11/13 09:54:41;;;;;;;6.40;5.80;;;11.10;99.90;;;;;;5102102;28;20246;-80
2023/11/13 09:57:13;;;;;;;6.90;6.25;;;11.10;99.90;;;;;;5091430;28;20309;-80
2023/11/13 09:59:41;;;;;;;6.88;5.82;;;11.20;99.90;;;;;;5097695;28;20665;-77
2023/11/13 10:02:10;;;;;;;5.10;4.70;;;11.20;99.90;;;;;;5092733;28;20566;-78
2023/11/13 10:04:38;;;;;;;19.05;12.95;;;11.30;99.90;;;;;;5092826;28;20223;-77
2023/11/13 10:07:09;;;;;;;10.02;7.65;;;11.30;99.90;;;;;;5089218;28;20318;-78
2023/11/13 10:09:36;;;;;;;8.23;6.82;;;11.30;99.90;;;;;;5096489;28;20327;-79
2023/11/13 10:12:12;;;;;;;8.38;6.80;;;11.40;99.90;;;;;;5084748;28;20683;-78
2023/11/13 10:14:45;;;;;;;7.90;7.10;;;11.40;99.90;;;;;;5085508;28;20512;-78
2023/11/13 10:17:12;;;;;;;6.40;5.72;;;11.40;99.90;;;;;;5093087;28;20231;-77
2023/11/13 10:19:40;;;;;;;8.55;6.47;;;11.40;99.90;;;;;;5091506;28;20218;-78
2023/11/13 10:22:16;;;;;;;5.95;5.45;;;11.40;99.90;;;;;;5092905;28;20219;-78
2023/11/13 10:24:57;;;;;;;6.72;4.93;;;11.40;99.90;;;;;;5090864;28;20241;-78
2023/11/13 10:27:24;;;;;;;5.53;4.60;;;11.40;99.90;;;;;;5089444;28;20601;-78
2023/11/13 10:30:03;;;;;;;5.43;4.95;;;11.40;99.90;;;;;;5082848;28;20315;-78
2023/11/13 10:32:36;;;;;;;4.93;4.38;;;11.50;99.90;;;;;;5090349;28;20695;-79
2023/11/13 10:35:09;;;;;;;5.95;4.97;;;11.50;99.90;;;;;;5089853;28;20306;-79
2023/11/13 10:37:38;;;;;;;6.30;4.63;;;11.50;99.90;;;;;;5092769;28;20235;-79
2023/11/13 10:40:15;;;;;;;7.50;4.25;;;11.50;99.90;;;;;;5097607;28;20223;-80
2023/11/13 10:42:50;;;;;;;4.15;3.75;;;11.50;99.90;;;;;;5092054;28;20720;-80
2023/11/13 10:45:17;;;;;;;4.47;3.95;;;11.50;99.90;;;;;;5089000;28;20732;-80
2023/11/13 10:47:49;;;;;;;4.75;3.53;;;11.60;99.90;;;;;;5088204;28;20220;-80
2023/11/13 10:50:22;;;;;;;5.45;3.83;;;11.60;99.90;;;;;;5091572;28;20231;-78
2023/11/13 10:52:52;;;;;;;4.43;4.05;;;11.60;99.90;;;;;;5085961;28;20315;-79
2023/11/13 10:55:22;;;;;;;5.53;4.97;;;11.60;99.90;;;;;;5070493;28;20322;-79
2023/11/13 10:57:50;;;;;;;7.57;5.28;;;11.60;99.90;;;;;;5092352;28;20230;-79
2023/11/13 11:00:18;;;;;;;5.72;5.22;;;11.60;99.90;;;;;;5091075;28;20226;-79
2023/11/13 11:02:48;;;;;;;5.85;4.78;;;11.60;99.90;;;;;;5091875;28;20708;-79
2023/11/13 11:05:22;;;;;;;5.07;4.25;;;11.60;99.90;;;;;;5091883;28;20227;-79
2023/11/13 11:07:55;;;;;;;5.38;4.97;;;11.60;99.90;;;;;;5079995;28;20306;-79
2023/11/13 11:10:25;;;;;;;4.47;4.07;;;11.60;99.90;;;;;;5083915;28;20227;-79
2023/11/13 11:13:03;;;;;;;3.90;3.58;;;11.50;99.90;;;;;;5091622;28;20219;-78
2023/11/13 11:16:16;;;;;;;6.47;4.80;;;11.60;99.90;;;;;;5098442;28;20223;-79
2023/11/13 11:18:49;;;;;;;5.65;5.00;;;11.60;99.90;;;;;;5067573;28;20595;-80
2023/11/13 11:21:33;;;;;;;5.10;4.70;;;11.50;99.90;;;;;;5093854;28;20211;-80
2023/11/13 11:24:07;;;;;;;5.43;4.93;;;11.60;99.90;;;;;;5086650;28;20215;-78
2023/11/13 11:26:53;;;;;;;6.57;4.50;;;11.60;99.90;;;;;;5088925;28;20215;-81
2023/11/13 11:29:33;;;;;;;7.00;4.45;;;11.60;99.90;;;;;;5080649;28;20217;-81
2023/11/13 11:32:04;;;;;;;4.32;4.00;;;11.60;99.90;;;;;;5094853;28;20311;-79
2023/11/13 11:34:31;;;;;;;5.25;4.75;;;11.60;99.90;;;;;;5094354;28;20276;-79
2023/11/13 11:37:03;;;;;;;4.75;3.95;;;11.60;99.90;;;;;;5088703;28;20260;-81
2023/11/13 11:39:30;;;;;;;6.00;4.15;;;11.60;99.90;;;;;;5089265;28;20226;-81
2023/11/13 11:41:59;;;;;;;5.82;4.25;;;11.60;99.90;;;;;;5095621;28;20240;-80
2023/11/13 11:44:29;;;;;;;5.18;3.42;;;11.60;99.90;;;;;;5094225;28;20211;-80
2023/11/13 11:46:58;;;;;;;3.53;3.00;;;11.60;99.90;;;;;;5095654;28;20215;-81
2023/11/13 11:49:26;;;;;;;7.03;4.05;;;11.60;99.90;;;;;;5097847;28;20287;-80
2023/11/13 11:51:55;;;;;;;7.55;3.75;;;11.50;99.90;;;;;;5096134;28;20227;-79
2023/11/13 11:54:24;;;;;;;5.30;4.78;;;11.50;99.90;;;;;;5089879;28;20591;-80
2023/11/13 11:56:59;;;;;;;4.25;3.90;;;11.60;99.90;;;;;;5095406;28;20227;-81
2023/11/13 11:59:27;;;;;;;4.60;3.45;;;11.60;99.90;;;;;;5079677;28;20218;-78
2023/11/13 12:01:55;;;;;;;4.55;4.00;;;11.60;99.90;;;;;;5091359;28;20230;-78
2023/11/13 12:04:22;;;;;;;4.32;3.67;;;11.60;99.90;;;;;;5095871;28;20314;-79
2023/11/13 12:06:52;;;;;;;5.20;3.83;;;11.60;99.90;;;;;;5087245;28;20215;-79
2023/11/13 12:09:21;;;;;;;4.75;4.10;;;11.50;99.90;;;;;;5097107;28;20679;-81
2023/11/13 12:11:49;;;;;;;4.82;3.78;;;11.50;99.90;;;;;;5116201;27;20297;-82
2023/11/13 12:14:19;;;;;;;10.65;3.92;;;11.50;99.90;;;;;;5115556;27;20215;-81
2023/11/13 12:16:48;;;;;;;4.38;3.80;;;11.50;99.90;;;;;;5117192;27;20223;-81
2023/11/13 12:19:15;;;;;;;3.50;3.20;;;11.50;99.90;;;;;;5117328;28;20570;-81
2023/11/13 12:21:43;;;;;;;4.78;3.20;;;11.60;99.90;;;;;;5116779;28;20231;-81
2023/11/13 12:24:11;;;;;;;4.15;3.50;;;11.60;99.90;;;;;;5092448;27;20216;-81
2023/11/13 12:26:40;;;;;;;3.90;3.15;;;11.60;99.90;;;;;;5116053;27;20229;-81
2023/11/13 12:29:15;;;;;;;4.20;3.80;;;11.60;99.90;;;;;;5117100;28;20222;-81
2023/11/13 12:31:44;;;;;;;4.40;3.70;;;11.60;99.90;;;;;;5116692;28;20683;-81
2023/11/13 12:34:14;;;;;;;4.07;3.70;;;11.60;99.90;;;;;;5115379;27;20250;-81
2023/11/13 12:36:42;;;;;;;5.18;3.85;;;11.70;99.90;;;;;;5117061;27;20230;-81
2023/11/13 12:39:16;;;;;;;3.72;3.42;;;11.70;99.90;;;;;;5114539;28;20215;-81
2023/11/13 12:41:45;;;;;;;3.80;3.50;;;11.60;99.90;;;;;;5090255;28;20254;-81
2023/11/13 12:44:14;;;;;;;4.80;3.53;;;11.60;99.90;;;;;;5096543;28;20220;-81
2023/11/13 12:46:50;;;;;;;4.55;3.80;;;11.60;99.90;;;;;;5116490;28;20222;-78
2023/11/13 12:49:18;;;;;;;8.63;4.45;;;11.60;99.90;;;;;;5116331;28;20233;-79
2023/11/13 12:51:47;;;;;;;4.53;4.20;;;11.60;99.90;;;;;;5115842;28;20230;-79
2023/11/13 12:54:15;;;;;;;7.20;4.75;;;11.60;99.90;;;;;;5113915;28;20661;-81
2023/11/13 12:56:46;;;;;;;10.85;5.30;;;11.60;99.90;;;;;;5116250;28;20226;-81
2023/11/13 12:59:22;;;;;;;5.45;4.85;;;11.60;99.90;;;;;;5087623;28;20628;-81
2023/11/13 13:01:49;;;;;;;5.57;5.07;;;11.60;99.90;;;;;;5095929;28;20614;-81